createdAt,value
2023-05-16T00:01:47.185Z,12.46
2023-05-16T00:06:49.001Z,12.52
2023-05-16T00:11:51.120Z,12.23
2023-05-16T00:16:59.461Z,12.28
2023-05-16T00:22:01.368Z,12.28
2023-05-16T00:27:04.089Z,12.20
2023-05-16T00:32:08.718Z,12.38
2023-05-16T00:37:10.907Z,12.24
2023-05-16T00:42:12.578Z,12.18
2023-05-16T00:47:14.757Z,12.18
2023-05-16T00:52:16.579Z,12.23
2023-05-16T00:57:19.067Z,12.06
2023-05-16T01:02:20.874Z,12.05
2023-05-16T01:07:22.902Z,12.04
2023-05-16T01:12:46.551Z,11.92
2023-05-16T01:18:03.510Z,11.90
2023-05-16T01:23:34.076Z,11.99
2023-05-16T01:28:36.996Z,11.65
2023-05-16T01:33:38.932Z,11.42
2023-05-16T01:38:55.983Z,11.24
2023-05-16T01:44:03.206Z,11.13
2023-05-16T01:49:20.505Z,11.03
2023-05-16T01:54:26.495Z,10.96
2023-05-16T01:59:28.883Z,11.02
2023-05-16T02:04:30.566Z,10.89
2023-05-16T02:09:32.195Z,11.34
2023-05-16T02:14:34.369Z,11.30
2023-05-16T02:19:36.294Z,11.36
2023-05-16T02:24:37.970Z,11.09
2023-05-16T02:29:39.583Z,11.05
2023-05-16T02:34:42.913Z,11.41
2023-05-16T02:39:44.561Z,11.23
2023-05-16T02:44:46.322Z,10.99
2023-05-16T02:49:47.961Z,11.13
2023-05-16T02:55:09.402Z,11.36
2023-05-16T03:00:12.047Z,11.46
2023-05-16T03:05:13.678Z,11.44
2023-05-16T03:10:15.559Z,11.52
2023-05-16T03:15:17.408Z,11.59
2023-05-16T03:20:19.241Z,11.64
2023-05-16T03:25:21.159Z,11.67
2023-05-16T03:30:23.121Z,11.68
2023-05-16T03:35:25.217Z,11.82
2023-05-16T03:40:46.682Z,11.58
2023-05-16T03:45:48.388Z,11.81
2023-05-16T03:50:51.425Z,11.84
2023-05-16T03:55:53.112Z,11.88
2023-05-16T04:00:54.987Z,11.97
2023-05-16T04:05:57.386Z,11.73
2023-05-16T04:10:59.079Z,11.76
2023-05-16T04:16:01.093Z,11.91
2023-05-16T04:21:02.964Z,11.88
2023-05-16T04:26:04.706Z,11.97
2023-05-16T04:31:06.455Z,11.83
2023-05-16T04:36:08.462Z,12.08
2023-05-16T04:41:10.095Z,12.09
2023-05-16T04:46:11.772Z,11.76
2023-05-16T04:51:13.399Z,11.96
2023-05-16T04:56:15.075Z,11.98
2023-05-16T05:01:16.880Z,11.60
2023-05-16T05:06:18.511Z,11.71
2023-05-16T05:11:20.322Z,11.46
2023-05-16T05:16:22.152Z,11.53
2023-05-16T05:21:25.326Z,11.51
2023-05-16T05:26:27.896Z,11.43
2023-05-16T05:31:29.682Z,11.13
2023-05-16T05:36:35.565Z,11.07
2023-05-16T05:41:40.333Z,11.11
2023-05-16T05:46:45.616Z,10.91
2023-05-16T05:51:56.333Z,10.81
2023-05-16T05:56:58.690Z,10.80
2023-05-16T06:02:03.772Z,10.69
2023-05-16T06:07:05.956Z,11.14
2023-05-16T06:12:07.802Z,11.04
2023-05-16T06:17:19.596Z,10.68
2023-05-16T06:22:21.397Z,10.23
2023-05-16T06:28:00.354Z,10.43
2023-05-16T06:33:02.060Z,10.53
2023-05-16T06:38:03.702Z,10.18
2023-05-16T06:43:05.359Z,10.23
2023-05-16T06:48:08.163Z,10.16
2023-05-16T06:53:12.053Z,10.10
2023-05-16T06:58:13.993Z,10.31
2023-05-16T07:03:15.897Z,10.27
2023-05-16T07:08:17.549Z,10.32
2023-05-16T07:13:19.235Z,10.40
2023-05-16T07:18:21.004Z,10.14
2023-05-16T07:23:22.654Z,10.07
2023-05-16T07:28:24.435Z,10.10
2023-05-16T07:33:27.420Z,10.03
2023-05-16T07:38:29.211Z,9.93
2023-05-16T07:43:31.191Z,10.05
2023-05-16T07:48:32.874Z,9.88
2023-05-16T07:53:34.689Z,10.08
2023-05-16T07:58:36.517Z,9.89
2023-05-16T08:03:38.521Z,9.91
2023-05-16T08:08:40.336Z,9.84
2023-05-16T08:13:42.248Z,9.89
2023-05-16T08:18:46.292Z,10.06
2023-05-16T08:23:48.021Z,10.10
2023-05-16T08:28:49.951Z,10.00
2023-05-16T08:33:51.656Z,10.04
2023-05-16T08:38:53.305Z,10.19
2023-05-16T08:43:55.188Z,10.27
2023-05-16T08:49:00.209Z,10.32
2023-05-16T08:54:12.036Z,10.27
2023-05-16T08:59:13.971Z,10.25
2023-05-16T09:04:16.394Z,10.30
2023-05-16T09:09:18.123Z,10.34
2023-05-16T09:14:19.721Z,10.14
2023-05-16T09:19:23.377Z,10.19
2023-05-16T09:24:26.333Z,10.02
2023-05-16T09:29:28.165Z,10.28
2023-05-16T09:34:30.000Z,10.42
2023-05-16T09:39:31.634Z,10.50
2023-05-16T09:44:33.726Z,10.87
2023-05-16T09:49:37.713Z,10.78
2023-05-16T09:54:39.531Z,10.84
2023-05-16T09:59:41.262Z,10.97
2023-05-16T10:04:42.956Z,10.76
2023-05-16T10:09:46.262Z,11.01
2023-05-16T10:14:50.398Z,11.17
2023-05-16T10:19:54.251Z,11.10
2023-05-16T10:25:08.201Z,11.05
2023-05-16T10:30:10.928Z,11.09
2023-05-16T10:35:12.874Z,11.04
2023-05-16T10:40:16.829Z,11.15
2023-05-16T10:45:20.091Z,10.93
2023-05-16T10:50:34.910Z,11.05
2023-05-16T10:55:36.641Z,10.97
2023-05-16T11:00:40.323Z,11.41
2023-05-16T11:05:42.199Z,11.59
2023-05-16T11:10:43.881Z,11.65
2023-05-16T11:15:45.602Z,11.68
2023-05-16T11:20:52.896Z,11.80
2023-05-16T11:25:56.072Z,11.68
2023-05-16T11:31:00.079Z,11.54
2023-05-16T11:41:17.621Z,11.80
2023-05-16T11:46:19.521Z,12.40
2023-05-16T11:51:21.698Z,13.08
2023-05-16T11:56:23.771Z,13.17
2023-05-16T12:01:26.084Z,13.09
2023-05-16T12:06:31.143Z,13.11
2023-05-16T12:11:32.994Z,12.86
2023-05-16T12:16:37.180Z,12.82
2023-05-16T12:21:39.184Z,12.71
2023-05-16T12:26:42.497Z,12.83
2023-05-16T12:31:44.213Z,12.72
2023-05-16T12:36:45.960Z,12.66
2023-05-16T12:41:49.168Z,12.95
2023-05-16T12:46:51.977Z,13.00
2023-05-16T12:51:57.515Z,12.71
2023-05-16T12:56:59.434Z,12.81
2023-05-16T13:02:01.418Z,12.84
2023-05-16T13:07:04.658Z,12.71
2023-05-16T13:12:06.692Z,12.45
2023-05-16T13:17:08.384Z,12.29
2023-05-16T13:22:10.411Z,12.09
2023-05-16T13:27:16.132Z,12.45
2023-05-16T13:32:18.980Z,12.56
2023-05-16T13:37:26.300Z,13.05
2023-05-16T13:42:35.894Z,13.20
2023-05-16T13:47:56.724Z,13.45
2023-05-16T13:52:58.525Z,13.35
2023-05-16T13:58:00.331Z,13.33
2023-05-16T14:03:09.138Z,13.26
2023-05-16T14:08:18.879Z,12.95
2023-05-16T14:13:43.805Z,12.66
2023-05-16T14:25:29.231Z,12.29
2023-05-16T14:30:31.629Z,12.00
2023-05-16T14:35:33.375Z,12.05
2023-05-16T14:40:35.047Z,11.83
2023-05-16T14:45:38.214Z,11.71
2023-05-16T14:50:39.890Z,11.83
2023-05-16T14:55:41.684Z,11.87
2023-05-16T15:00:43.554Z,11.76
2023-05-16T15:05:45.677Z,11.93
2023-05-16T15:10:47.350Z,11.75
2023-05-16T15:15:49.100Z,11.71
2023-05-16T15:20:53.097Z,12.14
2023-05-16T15:25:54.781Z,12.01
2023-05-16T15:30:56.473Z,12.14
2023-05-16T15:35:58.379Z,12.02
2023-05-16T15:41:16.497Z,12.30
2023-05-16T15:46:23.028Z,12.55
2023-05-16T15:51:25.235Z,13.26
2023-05-16T15:56:27.425Z,13.09
2023-05-16T16:01:29.678Z,12.64
2023-05-16T16:06:31.912Z,12.78
2023-05-16T16:11:33.890Z,12.79
2023-05-16T16:16:37.345Z,12.93
2023-05-16T16:21:39.275Z,13.11
2023-05-16T16:26:43.127Z,13.14
2023-05-16T16:31:45.398Z,13.54
2023-05-16T16:36:47.780Z,13.52
2023-05-16T16:41:49.999Z,13.44
2023-05-16T16:46:52.424Z,13.60
2023-05-16T16:51:54.313Z,13.53
2023-05-16T16:56:56.541Z,13.55
2023-05-16T17:01:58.600Z,13.27
2023-05-16T17:07:01.335Z,13.32
2023-05-16T17:12:08.331Z,13.44
2023-05-16T17:17:10.201Z,13.18
2023-05-16T17:22:12.194Z,13.12
2023-05-16T17:27:14.146Z,13.11
2023-05-16T17:32:17.446Z,12.95
2023-05-16T17:37:19.784Z,13.05
2023-05-16T17:42:21.941Z,13.19
2023-05-16T17:47:24.463Z,13.19
2023-05-16T17:52:26.758Z,13.11
2023-05-16T17:57:28.682Z,13.10
2023-05-16T18:02:30.475Z,13.08
2023-05-16T18:07:32.688Z,12.95
2023-05-16T18:12:36.257Z,12.98
2023-05-16T18:17:38.146Z,12.93
2023-05-16T18:22:40.422Z,12.77
2023-05-16T18:27:42.144Z,12.86
2023-05-16T18:32:44.008Z,12.80
2023-05-16T18:37:45.837Z,12.77
2023-05-16T18:42:47.735Z,12.45
2023-05-16T18:47:49.581Z,12.72
2023-05-16T18:52:52.482Z,12.47
2023-05-16T18:57:54.558Z,11.89
2023-05-16T19:02:56.328Z,11.91
2023-05-16T19:07:58.083Z,11.54
2023-05-16T19:13:06.942Z,11.24
2023-05-16T19:18:08.875Z,11.07
2023-05-16T19:23:10.630Z,10.94
2023-05-16T19:28:12.458Z,11.22
2023-05-16T19:33:15.049Z,11.31
2023-05-16T19:38:19.667Z,11.40
2023-05-16T19:43:21.479Z,11.42
2023-05-16T19:48:23.425Z,11.32
2023-05-16T19:53:25.771Z,11.23
2023-05-16T19:58:27.607Z,10.90
2023-05-16T20:03:29.539Z,10.84
2023-05-16T20:08:31.663Z,10.72
2023-05-16T20:13:33.834Z,10.40
2023-05-16T20:18:51.777Z,10.47
2023-05-16T20:24:00.510Z,10.37
2023-05-16T20:29:02.558Z,10.49
2023-05-16T20:34:04.554Z,10.44
2023-05-16T20:39:07.543Z,10.22
2023-05-16T20:44:09.284Z,10.07
2023-05-16T20:49:11.242Z,10.15
2023-05-16T20:54:13.323Z,10.32
2023-05-16T20:59:15.061Z,10.08
2023-05-16T21:04:17.201Z,9.92
2023-05-16T21:09:18.964Z,9.73
2023-05-16T21:14:20.664Z,9.43
2023-05-16T21:19:22.463Z,9.62
2023-05-16T21:24:24.231Z,9.42
2023-05-16T21:29:25.959Z,9.46
2023-05-16T21:34:27.797Z,9.50
2023-05-16T21:39:29.503Z,9.30
2023-05-16T21:44:31.709Z,9.09
2023-05-16T21:49:34.654Z,9.00
2023-05-16T21:54:36.386Z,9.21
2023-05-16T21:59:38.212Z,8.93
2023-05-16T22:04:40.051Z,9.07
2023-05-16T22:09:42.490Z,8.89
2023-05-16T22:14:44.206Z,8.77
2023-05-16T22:19:46.188Z,8.54
2023-05-16T22:24:48.113Z,8.64
2023-05-16T22:29:49.794Z,8.59
2023-05-16T22:34:52.773Z,8.42
2023-05-16T22:39:56.230Z,8.17
2023-05-16T22:44:57.868Z,8.17
2023-05-16T22:49:59.738Z,8.18
2023-05-16T22:55:02.355Z,8.05
2023-05-16T23:00:05.327Z,8.31
2023-05-16T23:05:07.682Z,8.04
2023-05-16T23:10:09.545Z,8.01
2023-05-16T23:15:11.776Z,7.80
2023-05-16T23:20:13.573Z,7.88
2023-05-16T23:25:15.279Z,7.52
2023-05-16T23:30:17.005Z,7.40
2023-05-16T23:35:18.776Z,7.56
2023-05-16T23:40:20.505Z,7.22
2023-05-16T23:45:22.293Z,7.42
2023-05-16T23:50:23.971Z,7.29
2023-05-16T23:55:25.821Z,7.51
